sensor_id;sensor_type;location;lat;lon;timestamp;P1;durP1;ratioP1;P2;durP2;ratioP2
13368;SDS011;6753;52.520;13.450;2022-11-02T00:00:01;624.97;;;557.45;;
13368;SDS011;6753;52.520;13.450;2022-11-02T00:00:13;625.72;;;558.25;;
13368;SDS011;6753;52.520;13.450;2022-11-02T00:00:26;626.28;;;558.88;;
13368;SDS011;6753;52.520;13.450;2022-11-02T00:00:39;624.25;;;557.13;;
13368;SDS011;6753;52.520;13.450;2022-11-02T00:00:51;622.97;;;556.08;;
13368;SDS011;6753;52.520;13.450;2022-11-02T00:01:07;625.42;;;558.13;;
13368;SDS011;6753;52.520;13.450;2022-11-02T00:01:25;645.88;;;577.25;;
13368;SDS011;6753;52.520;13.450;2022-11-02T00:01:39;650.42;;;581.30;;
13368;SDS011;6753;52.520;13.450;2022-11-02T00:01:51;656.42;;;586.92;;
13368;SDS011;6753;52.520;13.450;2022-11-02T00:02:02;660.65;;;590.85;;
13368;SDS011;6753;52.520;13.450;2022-11-02T00:02:13;661.23;;;591.20;;
13368;SDS011;6753;52.520;13.450;2022-11-02T00:02:24;646.53;;;577.30;;
13368;SDS011;6753;52.520;13.450;2022-11-02T00:02:35;642.80;;;574.15;;
13368;SDS011;6753;52.520;13.450;2022-11-02T00:02:45;636.95;;;568.75;;
13368;SDS011;6753;52.520;13.450;2022-11-02T00:02:56;628.95;;;561.33;;
13368;SDS011;6753;52.520;13.450;2022-11-02T00:03:08;627.08;;;559.58;;
13368;SDS011;6753;52.520;13.450;2022-11-02T00:03:19;623.42;;;556.40;;
13368;SDS011;6753;52.520;13.450;2022-11-02T00:03:30;623.65;;;556.53;;
13368;SDS011;6753;52.520;13.450;2022-11-02T00:03:40;627.65;;;559.85;;
13368;SDS011;6753;52.520;13.450;2022-11-02T00:03:51;635.38;;;566.50;;
13368;SDS011;6753;52.520;13.450;2022-11-02T00:04:02;637.60;;;568.50;;
13368;SDS011;6753;52.520;13.450;2022-11-02T00:04:13;652.65;;;582.05;;
13368;SDS011;6753;52.520;13.450;2022-11-02T00:04:24;682.83;;;609.10;;
13368;SDS011;6753;52.520;13.450;2022-11-02T00:04:35;713.05;;;636.25;;
13368;SDS011;6753;52.520;13.450;2022-11-02T00:04:46;722.55;;;644.97;;
13368;SDS011;6753;52.520;13.450;2022-11-02T00:04:57;743.40;;;664.28;;
13368;SDS011;6753;52.520;13.450;2022-11-02T00:05:10;762.53;;;681.40;;
13368;SDS011;6753;52.520;13.450;2022-11-02T00:05:21;760.22;;;679.47;;
13368;SDS011;6753;52.520;13.450;2022-11-02T00:05:36;739.63;;;661.30;;
13368;SDS011;6753;52.520;13.450;2022-11-02T00:05:47;754.72;;;675.05;;
13368;SDS011;6753;52.520;13.450;2022-11-02T00:05:58;754.50;;;674.75;;
13368;SDS011;6753;52.520;13.450;2022-11-02T00:06:09;752.72;;;673.47;;
13368;SDS011;6753;52.520;13.450;2022-11-02T00:06:20;760.33;;;680.13;;
13368;SDS011;6753;52.520;13.450;2022-11-02T00:06:31;764.75;;;683.97;;
13368;SDS011;6753;52.520;13.450;2022-11-02T00:06:42;765.22;;;684.33;;
13368;SDS011;6753;52.520;13.450;2022-11-02T00:06:53;761.47;;;681.20;;
13368;SDS011;6753;52.520;13.450;2022-11-02T00:07:04;760.63;;;680.65;;
13368;SDS011;6753;52.520;13.450;2022-11-02T00:07:15;758.42;;;678.65;;
13368;SDS011;6753;52.520;13.450;2022-11-02T00:07:26;752.30;;;673.23;;
13368;SDS011;6753;52.520;13.450;2022-11-02T00:07:36;747.85;;;669.30;;
13368;SDS011;6753;52.520;13.450;2022-11-02T00:07:47;740.17;;;662.22;;
13368;SDS011;6753;52.520;13.450;2022-11-02T00:07:59;731.22;;;653.67;;
13368;SDS011;6753;52.520;13.450;2022-11-02T00:08:10;723.70;;;646.88;;
13368;SDS011;6753;52.520;13.450;2022-11-02T00:08:21;714.40;;;638.70;;
13368;SDS011;6753;52.520;13.450;2022-11-02T00:08:33;707.75;;;632.95;;
13368;SDS011;6753;52.520;13.450;2022-11-02T00:08:44;706.27;;;631.87;;
13368;SDS011;6753;52.520;13.450;2022-11-02T00:08:55;711.00;;;636.20;;
13368;SDS011;6753;52.520;13.450;2022-11-02T00:09:06;709.08;;;634.55;;
13368;SDS011;6753;52.520;13.450;2022-11-02T00:09:17;713.90;;;638.80;;
13368;SDS011;6753;52.520;13.450;2022-11-02T00:09:28;722.92;;;647.20;;
13368;SDS011;6753;52.520;13.450;2022-11-02T00:09:39;725.53;;;649.35;;
13368;SDS011;6753;52.520;13.450;2022-11-02T00:09:50;728.90;;;652.40;;
13368;SDS011;6753;52.520;13.450;2022-11-02T00:10:01;737.72;;;660.25;;
13368;SDS011;6753;52.520;13.450;2022-11-02T00:10:12;744.67;;;666.78;;
13368;SDS011;6753;52.520;13.450;2022-11-02T00:10:23;741.08;;;663.38;;
13368;SDS011;6753;52.520;13.450;2022-11-02T00:10:34;740.28;;;662.72;;
13368;SDS011;6753;52.520;13.450;2022-11-02T00:10:44;737.97;;;660.63;;
13368;SDS011;6753;52.520;13.450;2022-11-02T00:10:56;737.53;;;660.20;;
13368;SDS011;6753;52.520;13.450;2022-11-02T00:11:07;732.85;;;655.95;;
13368;SDS011;6753;52.520;13.450;2022-11-02T00:11:18;735.58;;;658.25;;
13368;SDS011;6753;52.520;13.450;2022-11-02T00:11:30;743.25;;;665.30;;
13368;SDS011;6753;52.520;13.450;2022-11-02T00:11:41;747.80;;;669.47;;
13368;SDS011;6753;52.520;13.450;2022-11-02T00:11:52;747.88;;;669.75;;
13368;SDS011;6753;52.520;13.450;2022-11-02T00:12:03;749.22;;;670.92;;
13368;SDS011;6753;52.520;13.450;2022-11-02T00:12:14;750.80;;;672.45;;
13368;SDS011;6753;52.520;13.450;2022-11-02T00:12:26;748.30;;;670.35;;
13368;SDS011;6753;52.520;13.450;2022-11-02T00:12:37;748.83;;;670.75;;
13368;SDS011;6753;52.520;13.450;2022-11-02T00:12:48;753.95;;;675.38;;
13368;SDS011;6753;52.520;13.450;2022-11-02T00:12:59;756.20;;;677.72;;
13368;SDS011;6753;52.520;13.450;2022-11-02T00:13:11;753.70;;;675.40;;
13368;SDS011;6753;52.520;13.450;2022-11-02T00:13:21;755.93;;;677.47;;
13368;SDS011;6753;52.520;13.450;2022-11-02T00:13:32;757.65;;;679.25;;
13368;SDS011;6753;52.520;13.450;2022-11-02T00:13:43;758.40;;;679.80;;
13368;SDS011;6753;52.520;13.450;2022-11-02T00:13:55;756.55;;;677.92;;
13368;SDS011;6753;52.520;13.450;2022-11-02T00:14:06;755.10;;;676.57;;
13368;SDS011;6753;52.520;13.450;2022-11-02T00:14:16;754.88;;;676.17;;
13368;SDS011;6753;52.520;13.450;2022-11-02T00:14:27;753.78;;;674.90;;
13368;SDS011;6753;52.520;13.450;2022-11-02T00:14:38;750.90;;;672.20;;
13368;SDS011;6753;52.520;13.450;2022-11-02T00:14:49;755.67;;;676.57;;
13368;SDS011;6753;52.520;13.450;2022-11-02T00:14:59;757.75;;;678.42;;
13368;SDS011;6753;52.520;13.450;2022-11-02T00:15:10;763.53;;;683.35;;
13368;SDS011;6753;52.520;13.450;2022-11-02T00:15:23;765.75;;;685.65;;
13368;SDS011;6753;52.520;13.450;2022-11-02T00:15:38;767.20;;;686.72;;
13368;SDS011;6753;52.520;13.450;2022-11-02T00:15:49;766.45;;;685.92;;
13368;SDS011;6753;52.520;13.450;2022-11-02T00:16:00;767.72;;;686.92;;
13368;SDS011;6753;52.520;13.450;2022-11-02T00:16:12;768.53;;;687.45;;
13368;SDS011;6753;52.520;13.450;2022-11-02T00:16:25;772.03;;;690.22;;
13368;SDS011;6753;52.520;13.450;2022-11-02T00:16:37;774.58;;;692.40;;
13368;SDS011;6753;52.520;13.450;2022-11-02T00:16:49;776.13;;;693.63;;
13368;SDS011;6753;52.520;13.450;2022-11-02T00:17:01;775.65;;;693.13;;
13368;SDS011;6753;52.520;13.450;2022-11-02T00:17:12;778.20;;;695.65;;
13368;SDS011;6753;52.520;13.450;2022-11-02T00:17:23;780.70;;;697.67;;
13368;SDS011;6753;52.520;13.450;2022-11-02T00:17:34;780.53;;;697.38;;
13368;SDS011;6753;52.520;13.450;2022-11-02T00:17:45;775.88;;;693.00;;
13368;SDS011;6753;52.520;13.450;2022-11-02T00:18:00;772.20;;;689.70;;
13368;SDS011;6753;52.520;13.450;2022-11-02T00:18:13;766.08;;;683.75;;
13368;SDS011;6753;52.520;13.450;2022-11-02T00:18:24;769.63;;;686.10;;
13368;SDS011;6753;52.520;13.450;2022-11-02T00:18:35;773.50;;;689.50;;
13368;SDS011;6753;52.520;13.450;2022-11-02T00:18:48;777.38;;;692.67;;
13368;SDS011;6753;52.520;13.450;2022-11-02T00:19:02;778.97;;;694.05;;
13368;SDS011;6753;52.520;13.450;2022-11-02T00:19:13;780.33;;;695.58;;
13368;SDS011;6753;52.520;13.450;2022-11-02T00:19:24;779.47;;;695.47;;
13368;SDS011;6753;52.520;13.450;2022-11-02T00:19:35;781.20;;;696.60;;
13368;SDS011;6753;52.520;13.450;2022-11-02T00:19:46;784.15;;;699.63;;
13368;SDS011;6753;52.520;13.450;2022-11-02T00:19:57;788.07;;;703.00;;
13368;SDS011;6753;52.520;13.450;2022-11-02T00:20:09;795.33;;;709.13;;
13368;SDS011;6753;52.520;13.450;2022-11-02T00:20:21;815.30;;;721.15;;
13368;SDS011;6753;52.520;13.450;2022-11-02T00:20:35;1718.80;;;999.90;;
13368;SDS011;6753;52.520;13.450;2022-11-02T00:20:48;1364.05;;;984.28;;
13368;SDS011;6753;52.520;13.450;2022-11-02T00:20:59;1192.25;;;906.42;;
13368;SDS011;6753;52.520;13.450;2022-11-02T00:21:10;1097.93;;;863.85;;
13368;SDS011;6753;52.520;13.450;2022-11-02T00:21:22;1017.22;;;824.05;;
13368;SDS011;6753;52.520;13.450;2022-11-02T00:21:35;831.42;;;740.05;;
13368;SDS011;6753;52.520;13.450;2022-11-02T00:21:47;788.33;;;703.22;;
13368;SDS011;6753;52.520;13.450;2022-11-02T00:21:58;784.42;;;699.58;;
13368;SDS011;6753;52.520;13.450;2022-11-02T00:22:11;782.90;;;697.78;;
13368;SDS011;6753;52.520;13.450;2022-11-02T00:22:22;788.45;;;702.45;;
13368;SDS011;6753;52.520;13.450;2022-11-02T00:22:33;791.17;;;704.85;;
13368;SDS011;6753;52.520;13.450;2022-11-02T00:22:45;793.60;;;707.10;;
13368;SDS011;6753;52.520;13.450;2022-11-02T00:22:57;790.50;;;704.28;;
13368;SDS011;6753;52.520;13.450;2022-11-02T00:23:10;787.20;;;701.65;;
13368;SDS011;6753;52.520;13.450;2022-11-02T00:23:23;789.40;;;703.65;;
13368;SDS011;6753;52.520;13.450;2022-11-02T00:23:34;797.88;;;711.05;;
13368;SDS011;6753;52.520;13.450;2022-11-02T00:23:45;800.20;;;712.80;;
13368;SDS011;6753;52.520;13.450;2022-11-02T00:23:56;807.70;;;719.45;;
13368;SDS011;6753;52.520;13.450;2022-11-02T00:24:09;813.97;;;725.08;;
13368;SDS011;6753;52.520;13.450;2022-11-02T00:24:22;815.30;;;726.13;;
13368;SDS011;6753;52.520;13.450;2022-11-02T00:24:33;807.05;;;718.95;;
13368;SDS011;6753;52.520;13.450;2022-11-02T00:24:44;802.03;;;714.90;;
13368;SDS011;6753;52.520;13.450;2022-11-02T00:24:55;797.97;;;711.47;;
13368;SDS011;6753;52.520;13.450;2022-11-02T00:25:06;787.47;;;702.20;;
13368;SDS011;6753;52.520;13.450;2022-11-02T00:25:21;789.42;;;704.25;;
13368;SDS011;6753;52.520;13.450;2022-11-02T00:25:36;792.45;;;706.95;;
13368;SDS011;6753;52.520;13.450;2022-11-02T00:25:48;790.28;;;704.95;;
13368;SDS011;6753;52.520;13.450;2022-11-02T00:26:02;1191.40;;;910.40;;
13368;SDS011;6753;52.520;13.450;2022-11-02T00:26:13;922.13;;;777.05;;
13368;SDS011;6753;52.520;13.450;2022-11-02T00:26:25;860.30;;;747.60;;
13368;SDS011;6753;52.520;13.450;2022-11-02T00:26:37;827.10;;;731.35;;
13368;SDS011;6753;52.520;13.450;2022-11-02T00:26:48;810.13;;;720.47;;
13368;SDS011;6753;52.520;13.450;2022-11-02T00:26:59;777.05;;;693.38;;
13368;SDS011;6753;52.520;13.450;2022-11-02T00:27:10;771.03;;;688.22;;
13368;SDS011;6753;52.520;13.450;2022-11-02T00:27:21;766.58;;;684.38;;
13368;SDS011;6753;52.520;13.450;2022-11-02T00:27:33;764.70;;;682.72;;
13368;SDS011;6753;52.520;13.450;2022-11-02T00:27:44;764.63;;;682.72;;
13368;SDS011;6753;52.520;13.450;2022-11-02T00:27:55;765.03;;;683.10;;
13368;SDS011;6753;52.520;13.450;2022-11-02T00:28:06;767.22;;;685.13;;
13368;SDS011;6753;52.520;13.450;2022-11-02T00:28:17;772.30;;;689.50;;
13368;SDS011;6753;52.520;13.450;2022-11-02T00:28:28;771.75;;;689.13;;
13368;SDS011;6753;52.520;13.450;2022-11-02T00:28:42;769.72;;;687.53;;
13368;SDS011;6753;52.520;13.450;2022-11-02T00:28:54;765.65;;;683.72;;
13368;SDS011;6753;52.520;13.450;2022-11-02T00:29:05;880.10;;;742.55;;
13368;SDS011;6753;52.520;13.450;2022-11-02T00:29:17;1226.32;;;953.70;;
13368;SDS011;6753;52.520;13.450;2022-11-02T00:29:29;1052.88;;;875.38;;
13368;SDS011;6753;52.520;13.450;2022-11-02T00:29:40;977.80;;;838.35;;
13368;SDS011;6753;52.520;13.450;2022-11-02T00:29:51;929.45;;;808.25;;
13368;SDS011;6753;52.520;13.450;2022-11-02T00:30:03;898.67;;;789.50;;
13368;SDS011;6753;52.520;13.450;2022-11-02T00:30:15;831.75;;;742.20;;
13368;SDS011;6753;52.520;13.450;2022-11-02T00:30:28;799.95;;;714.58;;
13368;SDS011;6753;52.520;13.450;2022-11-02T00:30:39;820.80;;;732.95;;
13368;SDS011;6753;52.520;13.450;2022-11-02T00:30:50;850.85;;;759.45;;
13368;SDS011;6753;52.520;13.450;2022-11-02T00:31:01;873.83;;;779.85;;
13368;SDS011;6753;52.520;13.450;2022-11-02T00:31:12;895.90;;;799.20;;
13368;SDS011;6753;52.520;13.450;2022-11-02T00:31:22;913.72;;;815.22;;
13368;SDS011;6753;52.520;13.450;2022-11-02T00:31:33;915.53;;;816.83;;
13368;SDS011;6753;52.520;13.450;2022-11-02T00:31:44;883.60;;;788.60;;
13368;SDS011;6753;52.520;13.450;2022-11-02T00:31:55;846.28;;;755.80;;
13368;SDS011;6753;52.520;13.450;2022-11-02T00:32:06;817.83;;;730.85;;
13368;SDS011;6753;52.520;13.450;2022-11-02T00:32:17;798.13;;;713.27;;
13368;SDS011;6753;52.520;13.450;2022-11-02T00:32:28;780.50;;;697.22;;
13368;SDS011;6753;52.520;13.450;2022-11-02T00:32:39;772.03;;;689.47;;
13368;SDS011;6753;52.520;13.450;2022-11-02T00:32:50;768.92;;;686.72;;
13368;SDS011;6753;52.520;13.450;2022-11-02T00:33:01;774.30;;;691.45;;
13368;SDS011;6753;52.520;13.450;2022-11-02T00:33:12;775.45;;;692.50;;
13368;SDS011;6753;52.520;13.450;2022-11-02T00:33:23;782.83;;;698.90;;
13368;SDS011;6753;52.520;13.450;2022-11-02T00:33:35;782.42;;;698.75;;
13368;SDS011;6753;52.520;13.450;2022-11-02T00:33:46;782.15;;;698.63;;
13368;SDS011;6753;52.520;13.450;2022-11-02T00:33:56;781.83;;;698.30;;
13368;SDS011;6753;52.520;13.450;2022-11-02T00:34:07;793.95;;;708.50;;
13368;SDS011;6753;52.520;13.450;2022-11-02T00:34:18;801.72;;;715.42;;
13368;SDS011;6753;52.520;13.450;2022-11-02T00:34:30;803.00;;;716.50;;
13368;SDS011;6753;52.520;13.450;2022-11-02T00:34:41;814.43;;;726.50;;
13368;SDS011;6753;52.520;13.450;2022-11-02T00:34:51;824.50;;;735.25;;
13368;SDS011;6753;52.520;13.450;2022-11-02T00:35:03;835.33;;;745.00;;
13368;SDS011;6753;52.520;13.450;2022-11-02T00:35:15;835.77;;;746.03;;
13368;SDS011;6753;52.520;13.450;2022-11-02T00:35:26;845.33;;;754.53;;
13368;SDS011;6753;52.520;13.450;2022-11-02T00:35:37;851.70;;;760.08;;
13368;SDS011;6753;52.520;13.450;2022-11-02T00:35:48;851.03;;;759.75;;
13368;SDS011;6753;52.520;13.450;2022-11-02T00:35:59;848.88;;;757.90;;
13368;SDS011;6753;52.520;13.450;2022-11-02T00:36:11;845.05;;;754.55;;
13368;SDS011;6753;52.520;13.450;2022-11-02T00:36:22;845.43;;;755.00;;
13368;SDS011;6753;52.520;13.450;2022-11-02T00:36:33;842.40;;;752.38;;
13368;SDS011;6753;52.520;13.450;2022-11-02T00:36:44;839.97;;;749.97;;
13368;SDS011;6753;52.520;13.450;2022-11-02T00:36:56;837.17;;;747.58;;
13368;SDS011;6753;52.520;13.450;2022-11-02T00:37:06;833.90;;;744.78;;
13368;SDS011;6753;52.520;13.450;2022-11-02T00:37:17;828.95;;;740.35;;
13368;SDS011;6753;52.520;13.450;2022-11-02T00:37:29;825.53;;;737.40;;
13368;SDS011;6753;52.520;13.450;2022-11-02T00:37:40;822.95;;;735.42;;
13368;SDS011;6753;52.520;13.450;2022-11-02T00:37:50;816.85;;;730.17;;
13368;SDS011;6753;52.520;13.450;2022-11-02T00:38:01;812.65;;;726.53;;
13368;SDS011;6753;52.520;13.450;2022-11-02T00:38:12;809.83;;;724.10;;
13368;SDS011;6753;52.520;13.450;2022-11-02T00:38:23;807.78;;;722.58;;
13368;SDS011;6753;52.520;13.450;2022-11-02T00:38:33;811.03;;;725.65;;
13368;SDS011;6753;52.520;13.450;2022-11-02T00:38:44;817.03;;;731.05;;
13368;SDS011;6753;52.520;13.450;2022-11-02T00:38:56;817.05;;;731.15;;
13368;SDS011;6753;52.520;13.450;2022-11-02T00:39:07;823.25;;;736.75;;
13368;SDS011;6753;52.520;13.450;2022-11-02T00:39:18;822.25;;;735.67;;
13368;SDS011;6753;52.520;13.450;2022-11-02T00:39:28;819.00;;;732.88;;
13368;SDS011;6753;52.520;13.450;2022-11-02T00:39:40;810.60;;;725.13;;
13368;SDS011;6753;52.520;13.450;2022-11-02T00:39:50;805.10;;;720.20;;
13368;SDS011;6753;52.520;13.450;2022-11-02T00:40:01;799.90;;;715.57;;
13368;SDS011;6753;52.520;13.450;2022-11-02T00:40:13;797.03;;;713.03;;
13368;SDS011;6753;52.520;13.450;2022-11-02T00:40:23;795.87;;;711.70;;
13368;SDS011;6753;52.520;13.450;2022-11-02T00:40:34;794.58;;;710.63;;
13368;SDS011;6753;52.520;13.450;2022-11-02T00:40:46;799.83;;;715.33;;
13368;SDS011;6753;52.520;13.450;2022-11-02T00:40:57;804.80;;;720.00;;
13368;SDS011;6753;52.520;13.450;2022-11-02T00:41:07;810.35;;;725.00;;
13368;SDS011;6753;52.520;13.450;2022-11-02T00:41:18;816.20;;;730.35;;
13368;SDS011;6753;52.520;13.450;2022-11-02T00:41:31;819.50;;;733.42;;
13368;SDS011;6753;52.520;13.450;2022-11-02T00:41:41;819.08;;;733.15;;
13368;SDS011;6753;52.520;13.450;2022-11-02T00:41:52;826.67;;;739.60;;
13368;SDS011;6753;52.520;13.450;2022-11-02T00:42:03;832.70;;;744.72;;
13368;SDS011;6753;52.520;13.450;2022-11-02T00:42:15;835.40;;;747.20;;
13368;SDS011;6753;52.520;13.450;2022-11-02T00:42:26;841.63;;;752.55;;
13368;SDS011;6753;52.520;13.450;2022-11-02T00:42:37;850.22;;;760.33;;
13368;SDS011;6753;52.520;13.450;2022-11-02T00:42:48;855.55;;;765.20;;
13368;SDS011;6753;52.520;13.450;2022-11-02T00:42:59;853.10;;;763.00;;
13368;SDS011;6753;52.520;13.450;2022-11-02T00:43:09;858.58;;;767.45;;
13368;SDS011;6753;52.520;13.450;2022-11-02T00:43:20;867.63;;;775.40;;
13368;SDS011;6753;52.520;13.450;2022-11-02T00:43:31;872.33;;;779.47;;
13368;SDS011;6753;52.520;13.450;2022-11-02T00:43:42;874.72;;;781.53;;
13368;SDS011;6753;52.520;13.450;2022-11-02T00:43:54;869.38;;;776.78;;
13368;SDS011;6753;52.520;13.450;2022-11-02T00:44:04;869.45;;;776.80;;
13368;SDS011;6753;52.520;13.450;2022-11-02T00:44:15;869.65;;;777.28;;
13368;SDS011;6753;52.520;13.450;2022-11-02T00:44:26;865.27;;;773.33;;
13368;SDS011;6753;52.520;13.450;2022-11-02T00:44:37;863.65;;;772.03;;
13368;SDS011;6753;52.520;13.450;2022-11-02T00:44:48;868.50;;;776.15;;
13368;SDS011;6753;52.520;13.450;2022-11-02T00:44:58;869.40;;;776.83;;
13368;SDS011;6753;52.520;13.450;2022-11-02T00:45:09;866.77;;;774.37;;
13368;SDS011;6753;52.520;13.450;2022-11-02T00:45:20;863.65;;;771.55;;
13368;SDS011;6753;52.520;13.450;2022-11-02T00:45:33;862.50;;;770.63;;
13368;SDS011;6753;52.520;13.450;2022-11-02T00:45:44;856.97;;;766.13;;
13368;SDS011;6753;52.520;13.450;2022-11-02T00:45:55;852.67;;;762.45;;
13368;SDS011;6753;52.520;13.450;2022-11-02T00:46:06;850.43;;;760.63;;
13368;SDS011;6753;52.520;13.450;2022-11-02T00:46:17;844.25;;;755.10;;
13368;SDS011;6753;52.520;13.450;2022-11-02T00:46:29;842.40;;;753.65;;
13368;SDS011;6753;52.520;13.450;2022-11-02T00:46:39;842.67;;;753.83;;
13368;SDS011;6753;52.520;13.450;2022-11-02T00:46:50;842.10;;;753.23;;
13368;SDS011;6753;52.520;13.450;2022-11-02T00:47:02;839.80;;;751.17;;
13368;SDS011;6753;52.520;13.450;2022-11-02T00:47:13;839.72;;;751.22;;
13368;SDS011;6753;52.520;13.450;2022-11-02T00:47:24;838.97;;;750.58;;
13368;SDS011;6753;52.520;13.450;2022-11-02T00:47:34;836.53;;;748.30;;
13368;SDS011;6753;52.520;13.450;2022-11-02T00:47:45;838.65;;;750.25;;
13368;SDS011;6753;52.520;13.450;2022-11-02T00:47:56;841.15;;;752.67;;
13368;SDS011;6753;52.520;13.450;2022-11-02T00:48:07;841.00;;;752.42;;
13368;SDS011;6753;52.520;13.450;2022-11-02T00:48:19;841.40;;;752.63;;
13368;SDS011;6753;52.520;13.450;2022-11-02T00:48:30;838.22;;;749.83;;
13368;SDS011;6753;52.520;13.450;2022-11-02T00:48:40;834.77;;;746.67;;
13368;SDS011;6753;52.520;13.450;2022-11-02T00:48:51;832.47;;;744.40;;
13368;SDS011;6753;52.520;13.450;2022-11-02T00:49:02;830.60;;;742.67;;
13368;SDS011;6753;52.520;13.450;2022-11-02T00:49:13;832.00;;;744.07;;
13368;SDS011;6753;52.520;13.450;2022-11-02T00:49:24;831.88;;;744.13;;
13368;SDS011;6753;52.520;13.450;2022-11-02T00:49:34;832.25;;;744.50;;
13368;SDS011;6753;52.520;13.450;2022-11-02T00:49:45;831.28;;;743.67;;
13368;SDS011;6753;52.520;13.450;2022-11-02T00:49:57;830.15;;;742.28;;
13368;SDS011;6753;52.520;13.450;2022-11-02T00:50:08;828.03;;;740.30;;
13368;SDS011;6753;52.520;13.450;2022-11-02T00:50:19;826.78;;;738.95;;
13368;SDS011;6753;52.520;13.450;2022-11-02T00:50:30;827.22;;;739.15;;
13368;SDS011;6753;52.520;13.450;2022-11-02T00:50:41;825.28;;;737.38;;
13368;SDS011;6753;52.520;13.450;2022-11-02T00:50:51;823.00;;;735.55;;
13368;SDS011;6753;52.520;13.450;2022-11-02T00:51:02;820.15;;;733.13;;
13368;SDS011;6753;52.520;13.450;2022-11-02T00:51:13;814.97;;;728.80;;
13368;SDS011;6753;52.520;13.450;2022-11-02T00:51:24;810.53;;;724.87;;
13368;SDS011;6753;52.520;13.450;2022-11-02T00:51:36;804.95;;;719.83;;
13368;SDS011;6753;52.520;13.450;2022-11-02T00:51:46;797.60;;;713.20;;
13368;SDS011;6753;52.520;13.450;2022-11-02T00:51:57;791.17;;;707.67;;
13368;SDS011;6753;52.520;13.450;2022-11-02T00:52:08;783.40;;;700.60;;
13368;SDS011;6753;52.520;13.450;2022-11-02T00:52:19;775.45;;;693.28;;
13368;SDS011;6753;52.520;13.450;2022-11-02T00:52:30;765.95;;;685.00;;
13368;SDS011;6753;52.520;13.450;2022-11-02T00:52:40;758.22;;;678.13;;
13368;SDS011;6753;52.520;13.450;2022-11-02T00:52:51;752.70;;;672.97;;
13368;SDS011;6753;52.520;13.450;2022-11-02T00:53:03;743.30;;;664.33;;
13368;SDS011;6753;52.520;13.450;2022-11-02T00:53:14;737.03;;;658.75;;
13368;SDS011;6753;52.520;13.450;2022-11-02T00:53:25;726.28;;;649.25;;
13368;SDS011;6753;52.520;13.450;2022-11-02T00:53:35;719.70;;;643.30;;
13368;SDS011;6753;52.520;13.450;2022-11-02T00:53:46;713.00;;;637.50;;
13368;SDS011;6753;52.520;13.450;2022-11-02T00:53:57;706.45;;;631.80;;
13368;SDS011;6753;52.520;13.450;2022-11-02T00:54:08;703.60;;;629.53;;
13368;SDS011;6753;52.520;13.450;2022-11-02T00:54:18;697.03;;;623.67;;
13368;SDS011;6753;52.520;13.450;2022-11-02T00:54:29;688.45;;;615.85;;
13368;SDS011;6753;52.520;13.450;2022-11-02T00:54:41;677.00;;;605.20;;
13368;SDS011;6753;52.520;13.450;2022-11-02T00:54:53;665.85;;;595.00;;
13368;SDS011;6753;52.520;13.450;2022-11-02T00:55:04;655.77;;;585.73;;
13368;SDS011;6753;52.520;13.450;2022-11-02T00:55:15;644.20;;;575.20;;
13368;SDS011;6753;52.520;13.450;2022-11-02T00:55:27;636.17;;;567.87;;
13368;SDS011;6753;52.520;13.450;2022-11-02T00:55:38;633.10;;;565.00;;
13368;SDS011;6753;52.520;13.450;2022-11-02T00:55:48;625.13;;;557.75;;
13368;SDS011;6753;52.520;13.450;2022-11-02T00:56:03;614.08;;;547.63;;
13368;SDS011;6753;52.520;13.450;2022-11-02T00:56:14;603.05;;;537.47;;
13368;SDS011;6753;52.520;13.450;2022-11-02T00:56:24;594.25;;;529.47;;
13368;SDS011;6753;52.520;13.450;2022-11-02T00:56:35;587.35;;;523.15;;
13368;SDS011;6753;52.520;13.450;2022-11-02T00:56:48;584.28;;;520.50;;
13368;SDS011;6753;52.520;13.450;2022-11-02T00:56:58;586.15;;;522.20;;
13368;SDS011;6753;52.520;13.450;2022-11-02T00:57:09;582.85;;;519.10;;
13368;SDS011;6753;52.520;13.450;2022-11-02T00:57:20;604.67;;;539.10;;
13368;SDS011;6753;52.520;13.450;2022-11-02T00:57:32;619.13;;;552.58;;
13368;SDS011;6753;52.520;13.450;2022-11-02T00:57:43;622.28;;;555.63;;
13368;SDS011;6753;52.520;13.450;2022-11-02T00:57:54;615.65;;;549.55;;
13368;SDS011;6753;52.520;13.450;2022-11-02T00:58:04;615.67;;;549.75;;
13368;SDS011;6753;52.520;13.450;2022-11-02T00:58:15;610.80;;;545.10;;
13368;SDS011;6753;52.520;13.450;2022-11-02T00:58:26;603.20;;;537.97;;
13368;SDS011;6753;52.520;13.450;2022-11-02T00:58:37;603.55;;;538.22;;
13368;SDS011;6753;52.520;13.450;2022-11-02T00:58:48;605.35;;;539.72;;
13368;SDS011;6753;52.520;13.450;2022-11-02T00:58:59;618.15;;;551.45;;
13368;SDS011;6753;52.520;13.450;2022-11-02T00:59:10;624.50;;;557.30;;
13368;SDS011;6753;52.520;13.450;2022-11-02T00:59:21;636.65;;;568.50;;
13368;SDS011;6753;52.520;13.450;2022-11-02T00:59:32;636.03;;;567.90;;
13368;SDS011;6753;52.520;13.450;2022-11-02T00:59:42;646.65;;;577.47;;
13368;SDS011;6753;52.520;13.450;2022-11-02T00:59:53;879.13;;;784.33;;
13368;SDS011;6753;52.520;13.450;2022-11-02T01:00:04;859.33;;;768.17;;
13368;SDS011;6753;52.520;13.450;2022-11-02T01:00:17;834.67;;;746.45;;
13368;SDS011;6753;52.520;13.450;2022-11-02T01:00:27;806.43;;;721.40;;
13368;SDS011;6753;52.520;13.450;2022-11-02T01:00:40;780.95;;;698.72;;
13368;SDS011;6753;52.520;13.450;2022-11-02T01:00:51;749.38;;;670.72;;
13368;SDS011;6753;52.520;13.450;2022-11-02T01:01:03;713.70;;;638.65;;
13368;SDS011;6753;52.520;13.450;2022-11-02T01:01:14;685.80;;;613.40;;
13368;SDS011;6753;52.520;13.450;2022-11-02T01:01:25;667.35;;;596.65;;
13368;SDS011;6753;52.520;13.450;2022-11-02T01:01:35;659.37;;;589.37;;
13368;SDS011;6753;52.520;13.450;2022-11-02T01:01:46;655.58;;;586.00;;
13368;SDS011;6753;52.520;13.450;2022-11-02T01:01:58;651.65;;;582.25;;
13368;SDS011;6753;52.520;13.450;2022-11-02T01:02:10;649.88;;;580.70;;
13368;SDS011;6753;52.520;13.450;2022-11-02T01:02:20;650.83;;;581.50;;
13368;SDS011;6753;52.520;13.450;2022-11-02T01:02:31;651.47;;;581.88;;
13368;SDS011;6753;52.520;13.450;2022-11-02T01:02:42;653.75;;;583.85;;
13368;SDS011;6753;52.520;13.450;2022-11-02T01:02:53;656.20;;;586.08;;
13368;SDS011;6753;52.520;13.450;2022-11-02T01:03:04;653.10;;;583.20;;
13368;SDS011;6753;52.520;13.450;2022-11-02T01:03:14;654.17;;;583.92;;
13368;SDS011;6753;52.520;13.450;2022-11-02T01:03:26;661.13;;;590.42;;
13368;SDS011;6753;52.520;13.450;2022-11-02T01:03:38;664.25;;;593.20;;
13368;SDS011;6753;52.520;13.450;2022-11-02T01:03:49;663.45;;;592.65;;
13368;SDS011;6753;52.520;13.450;2022-11-02T01:04:00;664.90;;;594.00;;
13368;SDS011;6753;52.520;13.450;2022-11-02T01:04:11;668.33;;;597.23;;